createdAt,value
2018-09-01T00:01:14.729Z,93.80
2018-09-01T00:03:44.442Z,93.80
2018-09-01T00:06:14.089Z,93.90
2018-09-01T00:08:43.645Z,93.90
2018-09-01T00:11:13.292Z,93.90
2018-09-01T00:13:42.922Z,94.00
2018-09-01T00:16:12.506Z,94.00
2018-09-01T00:18:42.193Z,94.30
2018-09-01T00:21:11.884Z,94.00
2018-09-01T00:23:41.557Z,94.10
2018-09-01T00:26:11.176Z,94.20
2018-09-01T00:28:40.772Z,94.10
2018-09-01T00:31:10.390Z,94.30
2018-09-01T00:33:40.037Z,94.10
2018-09-01T00:36:09.673Z,94.10
2018-09-01T00:38:44.382Z,94.00
2018-09-01T00:41:13.959Z,94.10
2018-09-01T00:43:43.661Z,93.80
2018-09-01T00:46:13.327Z,94.10
2018-09-01T00:48:42.934Z,94.10
2018-09-01T00:51:12.628Z,94.10
2018-09-01T00:53:42.316Z,94.10
2018-09-01T00:56:11.897Z,94.20
2018-09-01T00:58:41.508Z,94.10
2018-09-01T01:01:11.139Z,93.90
2018-09-01T01:03:40.859Z,93.90
2018-09-01T01:06:10.451Z,93.90
2018-09-01T01:08:40.045Z,93.80
2018-09-01T01:11:09.673Z,93.80
2018-09-01T01:13:39.398Z,93.90
2018-09-01T01:16:09.114Z,93.80
2018-09-01T01:18:38.823Z,93.80
2018-09-01T01:21:08.452Z,93.70
2018-09-01T01:23:38.064Z,93.80
2018-09-01T01:26:07.838Z,93.60
2018-09-01T01:28:37.555Z,93.70
2018-09-01T01:31:07.577Z,93.40
2018-09-01T01:33:37.301Z,92.90
2018-09-01T01:36:06.956Z,93.10
2018-09-01T01:38:36.558Z,93.90
2018-09-01T01:41:06.294Z,94.30
2018-09-01T01:43:35.851Z,95.00
2018-09-01T01:46:05.453Z,94.50
2018-09-01T01:48:35.072Z,94.90
2018-09-01T01:51:04.737Z,94.40
2018-09-01T01:53:34.331Z,94.50
2018-09-01T01:56:03.918Z,94.60
2018-09-01T01:58:33.516Z,94.60
2018-09-01T02:01:03.125Z,94.60
2018-09-01T02:03:32.698Z,94.90
2018-09-01T02:06:02.314Z,94.90
2018-09-01T02:08:31.879Z,94.70
2018-09-01T02:11:01.486Z,94.60
2018-09-01T02:13:31.106Z,94.60
2018-09-01T02:16:00.714Z,94.80
2018-09-01T02:18:30.252Z,95.00
2018-09-01T02:20:59.924Z,94.90
2018-09-01T02:23:29.486Z,94.70
2018-09-01T02:25:59.207Z,94.60
2018-09-01T02:28:28.831Z,95.00
2018-09-01T02:30:58.467Z,94.70
2018-09-01T02:33:28.131Z,95.00
2018-09-01T02:35:57.733Z,95.00
2018-09-01T02:38:27.335Z,95.10
2018-09-01T02:40:56.994Z,95.10
2018-09-01T02:43:26.609Z,95.10
2018-09-01T02:45:56.206Z,95.10
2018-09-01T02:48:25.829Z,95.10
2018-09-01T02:50:55.471Z,95.00
2018-09-01T02:53:25.038Z,95.00
2018-09-01T02:55:54.639Z,95.00
2018-09-01T02:58:24.277Z,95.00
2018-09-01T03:00:59.109Z,95.00
2018-09-01T03:03:28.704Z,95.10
2018-09-01T03:05:58.269Z,95.20
2018-09-01T03:08:27.847Z,95.20
2018-09-01T03:10:57.537Z,95.20
2018-09-01T03:17:26.241Z,95.20
2018-09-01T03:23:01.131Z,95.40
2018-09-01T03:25:30.834Z,95.50
2018-09-01T03:28:00.504Z,95.30
2018-09-01T03:30:30.192Z,95.30
2018-09-01T03:33:00.960Z,95.40
2018-09-01T03:35:31.717Z,95.40
2018-09-01T03:38:02.511Z,95.30
2018-09-01T03:40:32.237Z,95.30
2018-09-01T03:43:02.608Z,95.20
2018-09-01T03:45:33.816Z,95.10
2018-09-01T03:48:03.567Z,95.00
2018-09-01T03:50:37.029Z,95.20
2018-09-01T03:53:06.800Z,95.40
2018-09-01T03:55:36.572Z,95.60
2018-09-01T03:58:06.490Z,95.60
2018-09-01T04:00:36.356Z,95.80
2018-09-01T04:03:06.231Z,95.80
2018-09-01T04:05:36.105Z,95.90
2018-09-01T04:08:06.038Z,95.70
2018-09-01T04:10:36.669Z,95.60
2018-09-01T04:13:06.266Z,95.60
2018-09-01T04:15:35.916Z,95.60
2018-09-01T04:18:09.227Z,95.60
2018-09-01T04:20:39.012Z,95.80
2018-09-01T04:23:08.759Z,95.80
2018-09-01T04:25:38.499Z,95.70
2018-09-01T04:28:09.321Z,95.70
2018-09-01T04:30:39.697Z,95.70
2018-09-01T04:33:11.332Z,95.70
2018-09-01T04:35:42.045Z,95.70
2018-09-01T04:38:11.746Z,95.60
2018-09-01T04:40:41.444Z,95.60
2018-09-01T04:43:11.813Z,95.10
2018-09-01T04:45:42.944Z,95.20
2018-09-01T04:48:13.169Z,94.90
2018-09-01T04:50:42.804Z,94.60
2018-09-01T04:53:12.469Z,94.30
2018-09-01T04:55:42.761Z,94.50
2018-09-01T04:58:12.355Z,94.40
2018-09-01T05:00:41.999Z,94.60
2018-09-01T05:03:11.721Z,94.90
2018-09-01T05:05:41.439Z,95.20
2018-09-01T05:08:11.155Z,95.80
2018-09-01T05:10:40.757Z,95.80
2018-09-01T05:13:10.388Z,95.40
2018-09-01T05:15:40.019Z,95.90
2018-09-01T05:18:09.779Z,95.50
2018-09-01T05:20:39.780Z,95.30
2018-09-01T05:23:10.447Z,95.10
2018-09-01T05:25:40.200Z,95.40
2018-09-01T05:28:09.799Z,95.90
2018-09-01T05:30:39.395Z,96.20
2018-09-01T05:33:09.136Z,96.30
2018-09-01T05:35:38.710Z,96.20
2018-09-01T05:38:08.270Z,96.30
2018-09-01T05:40:37.907Z,96.30
2018-09-01T05:43:07.555Z,96.30
2018-09-01T05:45:37.155Z,96.30
2018-09-01T05:48:06.732Z,96.40
2018-09-01T05:50:36.379Z,96.30
2018-09-01T05:53:06.061Z,96.20
2018-09-01T05:55:35.673Z,96.20
2018-09-01T05:58:05.301Z,96.20
2018-09-01T06:00:36.689Z,96.30
2018-09-01T06:03:06.374Z,96.20
2018-09-01T06:05:36.141Z,96.30
2018-09-01T06:08:05.759Z,96.30
2018-09-01T06:10:35.330Z,96.10
2018-09-01T06:13:05.066Z,95.90
2018-09-01T06:15:35.247Z,95.90
2018-09-01T06:18:04.968Z,96.10
2018-09-01T06:20:34.691Z,96.10
2018-09-01T06:23:05.684Z,96.00
2018-09-01T06:25:35.443Z,96.10
2018-09-01T06:28:10.417Z,96.00
2018-09-01T06:30:42.399Z,96.10
2018-09-01T06:33:12.281Z,96.30
2018-09-01T06:35:42.945Z,96.30
2018-09-01T06:38:12.698Z,96.30
2018-09-01T06:40:42.339Z,96.20
2018-09-01T06:43:15.877Z,96.10
2018-09-01T06:45:45.655Z,96.40
2018-09-01T06:48:15.336Z,96.20
2018-09-01T06:50:44.955Z,95.80
2018-09-01T06:53:14.614Z,95.90
2018-09-01T06:55:44.326Z,96.00
2018-09-01T06:58:17.227Z,95.70
2018-09-01T07:00:46.903Z,95.90
2018-09-01T07:03:16.513Z,95.40
2018-09-01T07:05:46.170Z,94.80
2018-09-01T07:08:16.206Z,94.50
2018-09-01T07:10:45.884Z,94.60
2018-09-01T07:13:15.494Z,94.20
2018-09-01T07:15:45.097Z,94.60
2018-09-01T07:18:14.699Z,94.30
2018-09-01T07:20:44.315Z,93.80
2018-09-01T07:23:13.949Z,94.40
2018-09-01T07:25:43.700Z,94.50
2018-09-01T07:28:13.342Z,94.20
2018-09-01T07:30:42.958Z,94.00
2018-09-01T07:33:12.821Z,94.10
2018-09-01T07:35:42.448Z,94.20
2018-09-01T07:38:12.071Z,94.20
2018-09-01T07:40:41.669Z,94.10
2018-09-01T07:43:11.451Z,94.70
2018-09-01T07:45:41.067Z,94.10
2018-09-01T07:48:10.768Z,93.80
2018-09-01T07:50:40.462Z,94.00
2018-09-01T07:53:10.079Z,93.80
2018-09-01T07:55:39.826Z,93.70
2018-09-01T07:58:09.527Z,93.50
2018-09-01T08:00:39.171Z,94.10
2018-09-01T08:03:08.744Z,93.90
2018-09-01T08:05:38.394Z,93.00
2018-09-01T08:08:08.023Z,93.00
2018-09-01T08:10:37.644Z,92.70
2018-09-01T08:13:07.567Z,92.40
2018-09-01T08:15:37.171Z,92.40
2018-09-01T08:18:07.049Z,92.90
2018-09-01T08:20:36.690Z,92.70
2018-09-01T08:23:08.094Z,93.00
2018-09-01T08:25:38.005Z,92.40
2018-09-01T08:28:07.787Z,92.80
2018-09-01T08:30:38.979Z,92.70
2018-09-01T08:33:08.721Z,92.50
2018-09-01T08:35:38.314Z,92.20
2018-09-01T08:38:08.105Z,91.90
2018-09-01T08:40:37.696Z,91.60
2018-09-01T08:43:07.777Z,91.50
2018-09-01T08:45:37.393Z,91.20
2018-09-01T08:48:07.328Z,91.30
2018-09-01T08:50:37.008Z,91.80
2018-09-01T08:53:06.718Z,91.60
2018-09-01T08:55:36.413Z,91.20
2018-09-01T08:58:06.415Z,91.60
2018-09-01T09:00:36.016Z,91.40
2018-09-01T09:03:05.631Z,91.50
2018-09-01T09:05:35.263Z,90.80
2018-09-01T09:08:04.930Z,90.40
2018-09-01T09:10:34.562Z,90.60
2018-09-01T09:13:04.125Z,90.60
2018-09-01T09:15:34.161Z,90.20
2018-09-01T09:18:04.844Z,91.50
2018-09-01T09:20:34.443Z,90.50
2018-09-01T09:23:04.063Z,90.90
2018-09-01T09:25:33.648Z,90.90
2018-09-01T09:28:03.226Z,91.20
2018-09-01T09:30:32.782Z,91.30
2018-09-01T09:33:02.401Z,91.60
2018-09-01T09:35:32.039Z,91.50
2018-09-01T09:38:01.620Z,91.80
2018-09-01T09:40:31.242Z,91.80
2018-09-01T09:43:00.836Z,92.00
2018-09-01T09:45:30.479Z,91.80
2018-09-01T09:48:00.099Z,92.00
2018-09-01T09:50:29.696Z,92.10
2018-09-01T09:52:59.296Z,92.20
2018-09-01T09:55:29.013Z,92.20
2018-09-01T09:57:58.636Z,92.20
2018-09-01T10:00:33.209Z,92.50
2018-09-01T10:03:02.744Z,92.40
2018-09-01T10:05:32.355Z,92.20
2018-09-01T10:08:01.919Z,92.00
2018-09-01T10:10:31.527Z,92.50
2018-09-01T10:13:01.184Z,92.40
2018-09-01T10:15:30.799Z,92.90
2018-09-01T10:18:00.436Z,93.80
2018-09-01T10:20:30.128Z,93.60
2018-09-01T10:22:59.946Z,93.90
2018-09-01T10:25:29.884Z,94.50
2018-09-01T10:27:59.805Z,94.10
2018-09-01T10:30:29.772Z,94.10
2018-09-01T10:32:59.652Z,93.90
2018-09-01T10:35:29.432Z,94.30
2018-09-01T10:37:59.562Z,94.30
2018-09-01T10:40:29.562Z,94.70
2018-09-01T10:42:59.481Z,94.80
2018-09-01T10:45:29.333Z,94.20
2018-09-01T10:47:59.265Z,94.70
2018-09-01T10:50:29.141Z,95.00
2018-09-01T10:52:59.089Z,95.20
2018-09-01T10:55:28.972Z,95.70
2018-09-01T10:57:58.842Z,95.70
2018-09-01T11:00:28.777Z,95.70
2018-09-01T11:02:58.760Z,95.80
2018-09-01T11:05:28.702Z,95.80
2018-09-01T11:07:58.722Z,95.70
2018-09-01T11:10:28.645Z,95.70
2018-09-01T11:12:58.537Z,95.90
2018-09-01T11:15:28.400Z,95.90
2018-09-01T11:20:42.775Z,96.10
2018-09-01T11:23:12.749Z,96.10
2018-09-01T11:25:42.784Z,96.30
2018-09-01T11:28:12.980Z,96.50
2018-09-01T11:30:43.283Z,96.20
2018-09-01T11:33:13.296Z,96.30
2018-09-01T11:35:43.672Z,96.70
2018-09-01T11:38:13.628Z,96.50
2018-09-01T11:40:43.518Z,96.70
2018-09-01T11:43:13.494Z,96.50
2018-09-01T11:45:43.490Z,96.10
2018-09-01T11:48:13.372Z,96.10
2018-09-01T11:50:43.928Z,95.90
2018-09-01T11:53:13.715Z,95.90
2018-09-01T11:55:43.661Z,95.80
2018-09-01T11:58:13.526Z,95.20
2018-09-01T12:00:43.325Z,95.90
2018-09-01T12:03:14.205Z,95.40
2018-09-01T12:05:44.070Z,95.00
2018-09-01T12:08:14.146Z,94.90
2018-09-01T12:10:44.222Z,94.60
2018-09-01T12:13:13.829Z,94.70
2018-09-01T12:18:37.608Z,92.80
2018-09-01T12:21:07.273Z,93.10
2018-09-01T12:23:36.945Z,93.10
2018-09-01T12:26:06.651Z,93.20
2018-09-01T12:28:36.263Z,94.00
2018-09-01T12:31:05.892Z,92.50
2018-09-01T12:33:35.498Z,92.30
2018-09-01T12:36:05.335Z,92.70
2018-09-01T12:38:35.007Z,91.90
2018-09-01T12:41:04.868Z,91.90
2018-09-01T12:43:34.549Z,91.20
2018-09-01T12:46:10.630Z,90.50
2018-09-01T12:48:40.296Z,90.40
2018-09-01T12:51:10.026Z,90.40
2018-09-01T12:53:39.820Z,91.30
2018-09-01T12:56:09.629Z,90.90
2018-09-01T12:58:39.362Z,90.30
2018-09-01T13:01:09.104Z,88.60
2018-09-01T13:03:39.629Z,89.00
2018-09-01T13:06:10.821Z,90.00
2018-09-01T13:08:40.899Z,88.60
2018-09-01T13:11:10.776Z,88.10
2018-09-01T13:13:40.644Z,87.10
2018-09-01T13:16:10.924Z,86.50
2018-09-01T13:18:40.754Z,85.50
2018-09-01T13:21:10.588Z,85.70
2018-09-01T13:23:40.340Z,85.80
2018-09-01T13:26:10.034Z,83.70
2018-09-01T13:28:39.948Z,82.60
2018-09-01T13:31:11.377Z,82.90
2018-09-01T13:33:41.328Z,80.50
2018-09-01T13:36:11.496Z,81.40
2018-09-01T13:38:41.296Z,80.00
2018-09-01T13:41:11.055Z,79.80
2018-09-01T13:43:40.756Z,80.40
2018-09-01T13:46:10.600Z,79.30
2018-09-01T13:48:40.809Z,79.10
2018-09-01T13:51:10.828Z,81.40
2018-09-01T13:53:40.776Z,80.00
2018-09-01T13:56:10.499Z,78.00
2018-09-01T13:58:40.136Z,77.90
2018-09-01T14:01:09.942Z,77.90
2018-09-01T14:03:39.679Z,79.30
2018-09-01T14:06:09.668Z,80.10
2018-09-01T14:08:39.328Z,78.00
2018-09-01T14:11:08.924Z,78.60
2018-09-01T14:13:38.718Z,78.40
2018-09-01T14:16:08.289Z,79.30
2018-09-01T14:18:37.984Z,79.70
2018-09-01T14:21:07.828Z,78.80
2018-09-01T14:23:37.699Z,80.30
2018-09-01T14:26:07.479Z,80.10
2018-09-01T14:28:37.337Z,80.30
2018-09-01T14:31:07.011Z,79.80
2018-09-01T14:33:36.893Z,79.50
2018-09-01T14:36:07.082Z,78.00
2018-09-01T14:38:39.185Z,79.60
2018-09-01T14:41:09.896Z,79.90
2018-09-01T14:43:41.757Z,79.30
2018-09-01T14:46:12.188Z,80.40
2018-09-01T14:48:44.324Z,79.40
2018-09-01T14:51:14.050Z,81.60
2018-09-01T14:53:44.768Z,82.80
2018-09-01T14:56:14.930Z,84.90
2018-09-01T14:58:44.863Z,85.60
2018-09-01T15:01:14.549Z,84.80
2018-09-01T15:03:44.500Z,84.50
2018-09-01T15:06:14.597Z,84.80
2018-09-01T15:08:45.021Z,83.70
2018-09-01T15:11:14.966Z,84.80
2018-09-01T15:13:44.916Z,84.80
2018-09-01T15:16:14.859Z,83.80
2018-09-01T15:18:44.903Z,84.10
2018-09-01T15:21:15.278Z,84.10
2018-09-01T15:23:45.065Z,84.30
2018-09-01T15:26:15.019Z,83.80
2018-09-01T15:28:44.836Z,84.90
2018-09-01T15:31:15.664Z,85.70
2018-09-01T15:33:47.032Z,86.50
2018-09-01T15:36:18.491Z,86.60
2018-09-01T15:38:48.378Z,87.20
2018-09-01T15:41:18.179Z,86.80
2018-09-01T15:43:48.659Z,86.60
2018-09-01T15:46:18.431Z,85.80
2018-09-01T15:48:48.147Z,86.10
2018-09-01T15:51:17.942Z,86.60
2018-09-01T15:53:47.880Z,86.70
2018-09-01T15:56:18.328Z,86.90
2018-09-01T15:58:48.315Z,87.00
2018-09-01T16:01:18.131Z,87.00
2018-09-01T16:03:47.873Z,87.20
2018-09-01T16:06:17.573Z,87.20
2018-09-01T16:08:47.910Z,86.70
2018-09-01T16:11:21.452Z,87.10
2018-09-01T16:13:51.454Z,86.60
2018-09-01T16:16:23.136Z,86.90
2018-09-01T16:18:53.574Z,87.40
2018-09-01T16:21:23.798Z,87.10
2018-09-01T16:23:54.192Z,87.40
2018-09-01T16:26:24.390Z,87.30
2018-09-01T16:28:54.643Z,87.60
2018-09-01T16:31:24.970Z,87.30
2018-09-01T16:33:55.496Z,87.70
2018-09-01T16:36:26.057Z,88.00
2018-09-01T16:38:56.338Z,88.50
2018-09-01T16:41:26.757Z,88.60
2018-09-01T16:43:57.122Z,88.80
2018-09-01T16:46:27.389Z,89.10
2018-09-01T16:48:57.592Z,89.50
2018-09-01T16:51:27.883Z,89.40
2018-09-01T16:53:57.837Z,89.60
2018-09-01T16:56:27.785Z,89.20
2018-09-01T16:58:58.061Z,89.50
2018-09-01T17:01:29.209Z,89.40
2018-09-01T17:03:59.548Z,89.40
2018-09-01T17:06:29.806Z,89.30
2018-09-01T17:09:00.737Z,89.30
2018-09-01T17:11:31.012Z,89.60
2018-09-01T17:14:01.429Z,89.80
2018-09-01T17:16:31.861Z,89.80
2018-09-01T17:19:02.075Z,89.70
2018-09-01T17:21:32.393Z,89.70
2018-09-01T17:24:02.636Z,89.60
2018-09-01T17:26:32.989Z,89.20
2018-09-01T17:29:04.181Z,89.20
2018-09-01T17:31:34.606Z,89.60
2018-09-01T17:34:04.956Z,89.50
2018-09-01T17:36:35.397Z,89.80
2018-09-01T17:39:07.759Z,90.00
2018-09-01T17:41:38.191Z,89.90
2018-09-01T17:44:08.688Z,90.10
2018-09-01T17:46:39.210Z,90.30
2018-09-01T17:49:09.577Z,90.50
2018-09-01T17:51:40.104Z,90.40
2018-09-01T17:54:10.488Z,90.30
2018-09-01T17:56:41.036Z,90.30
2018-09-01T17:59:11.476Z,90.50
2018-09-01T18:01:42.457Z,90.50
2018-09-01T18:04:12.956Z,90.30
2018-09-01T18:06:51.278Z,90.40
2018-09-01T18:09:27.817Z,90.30
2018-09-01T18:21:19.015Z,90.40
2018-09-01T18:41:35.077Z,90.70
2018-09-01T18:44:06.581Z,90.70
2018-09-01T18:49:30.728Z,90.90
2018-09-01T18:52:01.567Z,90.90
2018-09-01T18:54:33.788Z,91.10
2018-09-01T18:57:04.619Z,91.10
2018-09-01T18:59:35.665Z,91.10
2018-09-01T19:02:07.122Z,91.70
2018-09-01T19:04:38.206Z,92.60
2018-09-01T19:07:10.902Z,92.80
2018-09-01T19:09:42.431Z,93.70
2018-09-01T19:12:13.743Z,93.60
2018-09-01T19:14:44.816Z,93.80
2018-09-01T19:17:16.850Z,93.90
2018-09-01T19:19:51.432Z,94.30
2018-09-01T19:22:26.444Z,93.60
2018-09-01T19:25:01.383Z,93.90
2018-09-01T19:27:36.241Z,94.00
2018-09-01T19:30:13.122Z,93.40
2018-09-01T19:32:46.927Z,93.50
2018-09-01T19:35:21.137Z,94.00
2018-09-01T19:37:53.321Z,94.80
2018-09-01T19:40:26.770Z,94.60
2018-09-01T19:42:58.585Z,94.60
2018-09-01T19:45:30.226Z,94.90
2018-09-01T19:48:02.046Z,95.20
2018-09-01T19:50:33.857Z,95.40
2018-09-01T19:53:05.082Z,95.20
2018-09-01T19:55:36.386Z,95.50
2018-09-01T19:58:09.767Z,95.60
2018-09-01T20:00:43.814Z,95.90
2018-09-01T20:03:18.822Z,95.90
2018-09-01T20:05:54.428Z,96.00
2018-09-01T20:08:28.553Z,96.10
2018-09-01T20:11:04.449Z,96.10
2018-09-01T20:13:39.349Z,96.00
2018-09-01T20:16:11.206Z,96.20
2018-09-01T20:18:46.366Z,96.30
2018-09-01T20:21:19.523Z,96.50
2018-09-01T20:23:53.515Z,96.30
2018-09-01T20:26:29.726Z,96.50
2018-09-01T20:29:03.241Z,96.40
2018-09-01T20:31:34.191Z,96.40
2018-09-01T20:34:06.078Z,96.70
2018-09-01T20:36:38.216Z,96.60
2018-09-01T20:39:10.219Z,96.50
2018-09-01T20:41:42.577Z,96.50
2018-09-01T20:44:14.482Z,96.70
2018-09-01T20:46:45.052Z,96.50
2018-09-01T20:49:15.609Z,96.60
2018-09-01T20:51:46.188Z,96.50
2018-09-01T20:54:16.494Z,96.60
2018-09-01T20:56:47.008Z,96.60
2018-09-01T20:59:17.500Z,96.40
2018-09-01T21:01:48.074Z,96.30
2018-09-01T21:04:18.696Z,96.40
2018-09-01T21:06:49.339Z,96.50
2018-09-01T21:09:19.728Z,96.60
2018-09-01T21:11:50.285Z,96.70
2018-09-01T21:14:27.175Z,96.40
2018-09-01T21:16:56.915Z,96.60
2018-09-01T21:19:26.680Z,96.60
2018-09-01T21:21:56.747Z,96.50
2018-09-01T21:24:26.632Z,96.50
2018-09-01T21:26:56.512Z,96.60
2018-09-01T21:29:26.230Z,96.50
2018-09-01T21:31:55.946Z,96.60
2018-09-01T21:34:25.704Z,96.40
2018-09-01T21:36:55.416Z,96.50
2018-09-01T21:39:25.054Z,96.40
2018-09-01T21:41:54.756Z,96.30
2018-09-01T21:44:24.403Z,96.40
2018-09-01T21:46:54.057Z,96.20
2018-09-01T21:49:23.713Z,96.30
2018-09-01T21:51:53.383Z,96.30
2018-09-01T21:54:22.967Z,96.40
2018-09-01T21:56:52.674Z,96.50
2018-09-01T21:59:22.439Z,96.50
2018-09-01T22:01:57.132Z,96.70
2018-09-01T22:04:26.923Z,96.60
2018-09-01T22:06:56.496Z,96.70
2018-09-01T22:09:26.055Z,96.90
2018-09-01T22:11:55.696Z,96.80
2018-09-01T22:14:25.284Z,96.90
2018-09-01T22:16:54.888Z,96.90
2018-09-01T22:19:24.460Z,97.10
2018-09-01T22:21:54.054Z,97.10
2018-09-01T22:24:23.648Z,97.30
2018-09-01T22:26:53.241Z,97.20
2018-09-01T22:29:22.919Z,97.20
2018-09-01T22:31:52.568Z,97.10
2018-09-01T22:34:22.214Z,97.10
2018-09-01T22:36:51.777Z,97.20
2018-09-01T22:39:21.318Z,97.30
2018-09-01T22:41:50.992Z,97.10
2018-09-01T22:44:20.724Z,97.30
2018-09-01T22:46:50.813Z,97.40
2018-09-01T22:49:20.417Z,97.40
2018-09-01T22:51:50.022Z,97.40
2018-09-01T22:54:19.715Z,97.60
2018-09-01T22:56:49.340Z,97.40
2018-09-01T22:59:19.013Z,97.60
2018-09-01T23:01:48.620Z,97.50
2018-09-01T23:04:18.360Z,97.60
2018-09-01T23:06:47.954Z,97.40
2018-09-01T23:09:17.624Z,97.30
2018-09-01T23:11:48.130Z,97.40
2018-09-01T23:14:17.748Z,97.30
2018-09-01T23:16:47.414Z,97.30
2018-09-01T23:19:17.012Z,97.30
2018-09-01T23:21:46.752Z,97.50
2018-09-01T23:24:16.478Z,97.40
2018-09-01T23:26:46.372Z,97.50
2018-09-01T23:29:16.066Z,97.40
2018-09-01T23:31:45.650Z,97.40
2018-09-01T23:34:15.255Z,97.60
2018-09-01T23:36:44.889Z,97.50
2018-09-01T23:39:14.470Z,97.50
2018-09-01T23:41:44.233Z,97.50
2018-09-01T23:44:13.834Z,97.60
2018-09-01T23:46:43.493Z,97.60
2018-09-01T23:49:13.171Z,97.50
2018-09-01T23:51:42.812Z,97.30
2018-09-01T23:54:12.365Z,97.30
2018-09-01T23:56:41.967Z,97.40
2018-09-01T23:59:11.623Z,97.50
